createdAt,value
2019-03-24T00:02:25.306Z,11.08
2019-03-24T00:04:51.352Z,11.55
2019-03-24T00:07:17.479Z,12.60
2019-03-24T00:09:43.611Z,10.98
2019-03-24T00:12:09.733Z,11.73
2019-03-24T00:14:35.858Z,11.50
2019-03-24T00:17:02.001Z,12.30
2019-03-24T00:19:28.158Z,13.30
2019-03-24T00:21:54.308Z,12.88
2019-03-24T00:24:20.531Z,10.85
2019-03-24T00:26:50.265Z,11.35
2019-03-24T00:29:16.386Z,11.50
2019-03-24T00:31:42.586Z,12.70
2019-03-24T00:34:08.699Z,11.18
2019-03-24T00:36:34.861Z,11.33
2019-03-24T00:39:00.991Z,13.03
2019-03-24T00:41:29.587Z,12.23
2019-03-24T00:43:55.714Z,12.70
2019-03-24T00:46:21.835Z,11.18
2019-03-24T00:48:47.905Z,11.97
2019-03-24T00:51:14.078Z,12.07
2019-03-24T00:53:40.326Z,12.37
2019-03-24T00:56:06.550Z,11.33
2019-03-24T00:58:32.679Z,12.60
2019-03-24T01:00:58.917Z,11.22
2019-03-24T01:03:25.154Z,11.10
2019-03-24T01:05:51.374Z,12.80
2019-03-24T01:08:17.713Z,12.47
2019-03-24T01:10:43.839Z,13.25
2019-03-24T01:13:11.667Z,12.18
2019-03-24T01:15:47.309Z,10.68
2019-03-24T01:18:05.841Z,12.63
2019-03-24T01:20:32.007Z,13.20
2019-03-24T01:22:58.236Z,12.05
2019-03-24T01:25:25.989Z,12.33
2019-03-24T01:27:53.404Z,12.80
2019-03-24T01:30:19.644Z,11.73
2019-03-24T01:32:45.789Z,11.30
2019-03-24T01:35:11.927Z,12.55
2019-03-24T01:37:38.068Z,12.80
2019-03-24T01:40:05.422Z,12.85
2019-03-24T01:42:31.551Z,11.97
2019-03-24T01:44:57.717Z,12.53
2019-03-24T01:47:23.878Z,12.18
2019-03-24T01:49:50.044Z,11.73
2019-03-24T01:52:16.174Z,11.30
2019-03-24T01:54:42.254Z,11.88
2019-03-24T01:57:08.385Z,11.50
2019-03-24T01:59:34.343Z,11.35
2019-03-24T02:02:00.472Z,11.88
2019-03-24T02:04:26.525Z,12.25
2019-03-24T02:06:52.667Z,12.43
2019-03-24T02:09:18.824Z,12.95
2019-03-24T02:11:44.950Z,12.70
2019-03-24T02:14:11.123Z,13.00
2019-03-24T02:16:37.246Z,11.25
2019-03-24T02:19:07.463Z,11.70
2019-03-24T02:21:31.353Z,12.37
2019-03-24T02:23:57.515Z,13.20
2019-03-24T02:26:23.771Z,12.95
2019-03-24T02:28:49.917Z,14.30
2019-03-24T02:31:15.951Z,14.70
2019-03-24T02:33:42.157Z,12.25
2019-03-24T02:36:08.277Z,11.88
2019-03-24T02:38:34.409Z,11.70
2019-03-24T02:41:00.537Z,13.80
2019-03-24T02:43:26.604Z,12.58
2019-03-24T02:45:52.718Z,10.93
2019-03-24T02:48:18.850Z,12.60
2019-03-24T02:50:46.161Z,11.90
2019-03-24T02:53:12.207Z,12.37
2019-03-24T02:55:38.322Z,11.70
2019-03-24T02:58:05.999Z,13.10
2019-03-24T03:00:32.156Z,12.55
2019-03-24T03:02:58.322Z,11.85
2019-03-24T03:05:24.579Z,12.05
2019-03-24T03:07:50.758Z,11.68
2019-03-24T03:10:17.097Z,12.13
2019-03-24T03:12:43.223Z,11.88
2019-03-24T03:15:09.883Z,11.08
2019-03-24T03:17:35.976Z,11.57
2019-03-24T03:20:04.314Z,12.50
2019-03-24T03:22:30.427Z,12.90
2019-03-24T03:24:56.646Z,11.85
2019-03-24T03:27:23.853Z,12.50
2019-03-24T03:29:49.996Z,12.58
2019-03-24T03:32:16.134Z,11.85
2019-03-24T03:34:42.295Z,11.35
2019-03-24T03:37:08.439Z,11.35
2019-03-24T03:39:34.548Z,11.08
2019-03-24T03:42:00.698Z,11.22
2019-03-24T03:44:26.828Z,11.15
2019-03-24T03:46:53.451Z,10.43
2019-03-24T03:49:19.741Z,11.60
2019-03-24T03:51:45.786Z,10.10
2019-03-24T03:54:12.116Z,12.03
2019-03-24T03:56:38.252Z,11.83
2019-03-24T03:59:04.393Z,11.93
2019-03-24T04:01:30.933Z,12.10
2019-03-24T04:03:56.962Z,13.15
2019-03-24T04:06:23.119Z,12.82
2019-03-24T04:08:49.193Z,12.88
2019-03-24T04:11:15.376Z,12.50
2019-03-24T04:13:41.514Z,12.93
2019-03-24T04:16:07.669Z,11.43
2019-03-24T04:18:33.683Z,11.63
2019-03-24T04:20:59.744Z,12.65
2019-03-24T04:23:25.893Z,14.95
2019-03-24T04:25:51.921Z,15.55
2019-03-24T04:28:18.076Z,14.70
2019-03-24T04:30:46.528Z,17.48
2019-03-24T04:33:12.662Z,20.67
2019-03-24T04:35:38.761Z,21.02
2019-03-24T04:38:04.878Z,20.15
2019-03-24T04:40:31.212Z,17.05
2019-03-24T04:42:57.337Z,16.60
2019-03-24T04:45:23.484Z,15.60
2019-03-24T04:47:49.513Z,16.00
2019-03-24T04:50:15.717Z,15.38
2019-03-24T04:52:41.851Z,16.90
2019-03-24T04:55:08.628Z,20.15
2019-03-24T04:57:34.776Z,22.58
2019-03-24T05:00:01.329Z,26.75
2019-03-24T05:02:28.780Z,22.02
2019-03-24T05:04:54.874Z,21.02
2019-03-24T05:07:21.023Z,19.23
2019-03-24T05:09:47.393Z,18.62
2019-03-24T05:12:13.513Z,17.48
2019-03-24T05:14:39.564Z,16.93
2019-03-24T05:17:05.734Z,16.45
2019-03-24T05:19:31.858Z,17.37
2019-03-24T05:21:57.834Z,21.75
2019-03-24T05:24:23.959Z,24.23
2019-03-24T05:26:50.141Z,28.23
2019-03-24T05:29:16.181Z,26.45
2019-03-24T05:31:42.302Z,20.68
2019-03-24T05:34:08.425Z,19.62
2019-03-24T05:36:34.365Z,20.00
2019-03-24T05:39:00.483Z,16.97
2019-03-24T05:41:26.507Z,17.70
2019-03-24T05:43:52.728Z,24.12
2019-03-24T05:46:18.895Z,21.85
2019-03-24T05:48:45.069Z,21.75
2019-03-24T05:51:11.239Z,24.98
2019-03-24T05:53:37.361Z,24.05
2019-03-24T05:56:03.485Z,26.80
2019-03-24T05:58:29.616Z,25.97
2019-03-24T06:00:55.755Z,25.95
2019-03-24T06:03:21.892Z,24.43
2019-03-24T06:05:48.013Z,27.80
2019-03-24T06:08:14.140Z,23.90
2019-03-24T06:10:44.413Z,26.48
2019-03-24T06:13:08.325Z,23.30
2019-03-24T06:15:34.484Z,21.60
2019-03-24T06:18:00.604Z,20.62
2019-03-24T06:20:26.641Z,26.48
2019-03-24T06:22:52.803Z,24.30
2019-03-24T06:25:18.932Z,23.05
2019-03-24T06:27:44.997Z,30.57
2019-03-24T06:30:11.131Z,25.60
2019-03-24T06:32:37.277Z,27.20
2019-03-24T06:35:04.928Z,27.40
2019-03-24T06:37:31.097Z,30.02
2019-03-24T06:39:57.218Z,25.80
2019-03-24T06:42:23.188Z,27.40
2019-03-24T06:44:49.308Z,24.85
2019-03-24T06:47:15.367Z,25.48
2019-03-24T06:49:41.408Z,23.10
2019-03-24T06:52:07.739Z,35.33
2019-03-24T06:54:33.872Z,31.80
2019-03-24T06:57:00.184Z,29.45
2019-03-24T06:59:26.125Z,30.68
2019-03-24T07:01:52.156Z,29.40
2019-03-24T07:04:18.296Z,32.80
2019-03-24T07:06:44.441Z,32.05
2019-03-24T07:09:10.598Z,31.23
2019-03-24T07:11:36.721Z,30.02
2019-03-24T07:14:02.849Z,31.17
2019-03-24T07:16:28.967Z,34.13
2019-03-24T07:18:55.090Z,31.65
2019-03-24T07:21:21.230Z,35.78
2019-03-24T07:23:47.375Z,36.10
2019-03-24T07:26:13.512Z,34.05
2019-03-24T07:28:40.668Z,31.45
2019-03-24T07:31:06.715Z,30.45
2019-03-24T07:33:32.839Z,30.77
2019-03-24T07:35:59.070Z,30.17
2019-03-24T07:38:25.236Z,30.68
2019-03-24T07:40:51.385Z,29.18
2019-03-24T07:43:17.620Z,22.70
2019-03-24T07:45:43.778Z,30.35
2019-03-24T07:48:18.651Z,41.28
2019-03-24T07:50:40.003Z,38.78
2019-03-24T07:53:06.149Z,42.27
2019-03-24T07:55:32.280Z,49.50
2019-03-24T07:57:58.408Z,45.80
2019-03-24T08:00:33.310Z,44.18
2019-03-24T08:02:59.588Z,44.70
2019-03-24T08:05:25.818Z,45.00
2019-03-24T08:07:54.071Z,46.83
2019-03-24T08:10:20.881Z,49.88
2019-03-24T08:12:47.569Z,48.28
2019-03-24T08:15:18.803Z,51.30
2019-03-24T08:17:45.221Z,47.60
2019-03-24T08:20:13.872Z,47.25
2019-03-24T08:22:40.015Z,50.17
2019-03-24T08:25:06.351Z,48.75
2019-03-24T08:27:32.604Z,47.10
2019-03-24T08:29:58.760Z,43.68
2019-03-24T08:32:24.915Z,42.93
2019-03-24T08:34:51.084Z,51.00
2019-03-24T08:37:17.223Z,56.40
2019-03-24T08:39:43.362Z,61.15
2019-03-24T08:42:09.647Z,70.20
2019-03-24T08:44:35.892Z,62.65
2019-03-24T08:47:02.013Z,54.45
2019-03-24T08:49:28.233Z,48.45
2019-03-24T08:51:54.330Z,52.45
2019-03-24T08:54:20.721Z,52.25
2019-03-24T08:56:47.351Z,53.70
2019-03-24T08:59:13.607Z,71.62
2019-03-24T09:01:39.957Z,74.87
2019-03-24T09:04:16.462Z,66.28
2019-03-24T09:06:40.357Z,73.22
2019-03-24T09:09:06.750Z,84.97
2019-03-24T09:11:35.212Z,66.40
2019-03-24T09:14:01.624Z,65.40
2019-03-24T09:16:27.923Z,57.25
2019-03-24T09:18:54.190Z,73.15
2019-03-24T09:21:23.754Z,75.25
2019-03-24T09:23:57.360Z,69.53
2019-03-24T09:26:23.718Z,67.90
2019-03-24T09:28:59.204Z,60.65
2019-03-24T09:31:25.660Z,63.13
2019-03-24T09:34:45.163Z,54.33
2019-03-24T09:37:01.340Z,50.83
2019-03-24T09:40:00.469Z,50.73
2019-03-24T09:45:37.122Z,47.33
2019-03-24T09:48:21.939Z,49.20
2019-03-24T10:07:07.220Z,46.10
2019-03-24T10:09:33.590Z,43.60
2019-03-24T10:12:00.205Z,42.83
2019-03-24T10:14:26.957Z,43.90
2019-03-24T10:16:55.616Z,43.70
2019-03-24T10:19:35.571Z,45.60
2019-03-24T10:22:04.924Z,37.73
2019-03-24T10:24:33.235Z,40.30
2019-03-24T10:26:59.984Z,40.48
2019-03-24T10:29:26.234Z,39.20
2019-03-24T10:32:18.719Z,37.98
2019-03-24T10:34:45.242Z,40.35
2019-03-24T10:37:11.800Z,38.80
2019-03-24T10:39:40.158Z,39.92
2019-03-24T10:42:06.492Z,37.15
2019-03-24T10:44:33.054Z,35.78
2019-03-24T10:47:08.421Z,36.25
2019-03-24T10:49:34.706Z,38.73
2019-03-24T10:52:09.659Z,34.00
2019-03-24T10:54:36.140Z,35.85
2019-03-24T10:57:11.232Z,36.68
2019-03-24T10:59:37.670Z,36.98
2019-03-24T11:05:59.714Z,33.83
2019-03-24T11:08:27.426Z,36.65
2019-03-24T11:10:53.894Z,36.42
2019-03-24T11:13:21.705Z,35.00
2019-03-24T11:15:48.116Z,33.02
2019-03-24T11:18:14.828Z,36.83
2019-03-24T11:20:41.404Z,31.85
2019-03-24T11:23:08.062Z,34.83
2019-03-24T11:25:48.647Z,33.15
2019-03-24T11:28:15.485Z,32.35
2019-03-24T11:30:47.051Z,35.38
2019-03-24T11:33:13.354Z,32.90
2019-03-24T11:35:39.912Z,32.15
2019-03-24T11:38:06.679Z,32.55
2019-03-24T11:43:41.127Z,33.58
2019-03-24T11:49:16.420Z,32.00
2019-03-24T11:51:42.791Z,34.70
2019-03-24T11:54:09.100Z,34.45
2019-03-24T11:56:35.330Z,34.70
2019-03-24T11:59:01.590Z,35.85
2019-03-24T12:01:37.760Z,33.10
2019-03-24T12:03:56.140Z,37.10
2019-03-24T12:06:22.434Z,34.23
2019-03-24T12:08:48.807Z,33.58
2019-03-24T12:11:15.109Z,36.48
2019-03-24T12:13:41.379Z,34.98
2019-03-24T12:16:07.734Z,34.00
2019-03-24T12:18:34.450Z,35.50
2019-03-24T12:21:00.759Z,34.98
2019-03-24T12:23:27.005Z,36.65
2019-03-24T12:25:53.293Z,34.23
2019-03-24T12:28:19.589Z,33.75
2019-03-24T12:30:45.856Z,34.85
2019-03-24T12:33:12.133Z,34.10
2019-03-24T12:35:38.379Z,37.55
2019-03-24T12:38:04.674Z,33.55
2019-03-24T12:40:31.020Z,37.00
2019-03-24T12:42:57.271Z,33.73
2019-03-24T12:45:23.511Z,34.70
2019-03-24T12:47:49.815Z,36.65
2019-03-24T12:50:16.936Z,33.65
2019-03-24T12:52:43.228Z,34.67
2019-03-24T12:55:09.529Z,34.35
2019-03-24T12:57:35.837Z,33.95
2019-03-24T13:00:08.062Z,33.73
2019-03-24T13:02:34.422Z,33.35
2019-03-24T13:05:00.693Z,36.20
2019-03-24T13:07:27.015Z,34.33
2019-03-24T13:09:53.341Z,32.48
2019-03-24T13:12:19.682Z,32.53
2019-03-24T13:14:45.989Z,31.17
2019-03-24T13:17:12.273Z,31.48
2019-03-24T13:19:38.678Z,30.65
2019-03-24T13:22:04.983Z,32.15
2019-03-24T13:24:31.365Z,32.67
2019-03-24T13:27:00.588Z,32.08
2019-03-24T13:29:26.887Z,33.02
2019-03-24T13:31:53.156Z,32.20
2019-03-24T13:34:22.240Z,32.13
2019-03-24T13:36:48.590Z,32.78
2019-03-24T13:39:14.909Z,33.25
2019-03-24T13:41:41.176Z,31.02
2019-03-24T13:44:07.435Z,31.45
2019-03-24T13:46:33.704Z,31.33
2019-03-24T13:49:01.381Z,29.85
2019-03-24T13:51:27.651Z,31.87
2019-03-24T13:53:53.899Z,30.90
2019-03-24T13:56:20.259Z,31.02
2019-03-24T13:58:46.572Z,30.27
2019-03-24T14:01:13.296Z,29.92
2019-03-24T14:03:39.577Z,27.95
2019-03-24T14:06:06.344Z,31.02
2019-03-24T14:08:32.613Z,28.55
2019-03-24T14:10:58.849Z,30.82
2019-03-24T14:13:25.128Z,31.27
2019-03-24T14:15:51.406Z,32.15
2019-03-24T14:18:17.650Z,31.30
2019-03-24T14:20:45.814Z,29.15
2019-03-24T14:23:14.295Z,29.12
2019-03-24T14:25:40.441Z,27.23
2019-03-24T14:28:06.733Z,29.65
2019-03-24T14:30:40.557Z,28.17
2019-03-24T14:33:06.793Z,28.87
2019-03-24T14:35:33.064Z,26.62
2019-03-24T14:37:59.349Z,26.97
2019-03-24T14:40:25.809Z,26.52
2019-03-24T14:42:52.089Z,25.50
2019-03-24T14:45:18.366Z,26.05
2019-03-24T14:47:44.672Z,27.00
2019-03-24T14:50:11.063Z,26.55
2019-03-24T14:52:38.739Z,25.80
2019-03-24T14:55:06.776Z,27.93
2019-03-24T14:57:33.083Z,27.90
2019-03-24T14:59:59.356Z,30.37
2019-03-24T15:02:25.636Z,37.80
2019-03-24T15:04:51.885Z,33.28
2019-03-24T15:07:18.131Z,31.80
2019-03-24T15:09:47.429Z,30.62
2019-03-24T15:14:39.826Z,25.65
2019-03-24T15:17:06.045Z,25.62
2019-03-24T15:19:32.396Z,25.15
2019-03-24T15:21:58.626Z,25.45
2019-03-24T15:24:24.897Z,25.82
2019-03-24T15:26:51.160Z,30.05
2019-03-24T15:29:17.458Z,41.55
2019-03-24T15:31:43.709Z,65.25
2019-03-24T15:34:09.709Z,50.12
2019-03-24T15:36:36.133Z,53.55
2019-03-24T15:39:06.097Z,39.03
2019-03-24T15:41:32.414Z,36.15
2019-03-24T15:43:58.724Z,28.65
2019-03-24T15:46:24.886Z,24.27
2019-03-24T15:48:51.276Z,26.65
2019-03-24T15:51:17.570Z,31.10
2019-03-24T15:53:47.044Z,38.53
2019-03-24T15:56:13.369Z,30.27
2019-03-24T15:58:39.668Z,30.05
2019-03-24T16:01:06.109Z,27.37
2019-03-24T16:03:32.339Z,21.40
2019-03-24T16:05:58.503Z,34.20
2019-03-24T16:08:24.793Z,33.58
2019-03-24T16:10:52.255Z,24.20
2019-03-24T16:13:18.608Z,30.62
2019-03-24T16:15:44.828Z,25.45
2019-03-24T16:18:11.202Z,23.83
2019-03-24T16:20:37.481Z,23.57
2019-03-24T16:23:04.010Z,20.23
2019-03-24T16:25:30.294Z,19.65
2019-03-24T16:27:57.076Z,19.23
2019-03-24T16:30:23.401Z,18.00
2019-03-24T16:32:49.522Z,17.92
2019-03-24T16:35:15.779Z,18.05
2019-03-24T16:37:42.032Z,19.25
2019-03-24T16:40:08.366Z,18.30
2019-03-24T16:42:34.492Z,17.67
2019-03-24T16:45:00.612Z,19.32
2019-03-24T16:47:26.845Z,19.60
2019-03-24T16:49:52.943Z,19.10
2019-03-24T16:52:19.092Z,20.32
2019-03-24T16:54:47.135Z,18.65
2019-03-24T16:57:13.659Z,19.48
2019-03-24T16:59:39.782Z,18.32
2019-03-24T17:02:06.033Z,23.67
2019-03-24T17:04:32.269Z,19.05
2019-03-24T17:07:00.382Z,17.42
2019-03-24T17:09:26.705Z,16.55
2019-03-24T17:11:53.141Z,17.77
2019-03-24T17:14:19.628Z,23.42
2019-03-24T17:16:51.885Z,17.23
2019-03-24T17:19:18.143Z,14.70
2019-03-24T17:21:49.789Z,15.40
2019-03-24T17:24:12.670Z,14.18
2019-03-24T17:26:38.931Z,14.45
2019-03-24T17:29:05.176Z,15.45
2019-03-24T17:31:31.469Z,17.95
2019-03-24T17:33:57.732Z,14.83
2019-03-24T17:36:24.060Z,16.60
2019-03-24T17:38:50.238Z,17.10
2019-03-24T17:41:20.349Z,15.50
2019-03-24T17:43:46.509Z,14.63
2019-03-24T17:46:12.819Z,16.48
2019-03-24T17:48:39.058Z,19.70
2019-03-24T17:51:05.299Z,19.70
2019-03-24T17:53:31.604Z,15.48
2019-03-24T17:55:57.904Z,16.10
2019-03-24T17:58:24.139Z,19.70
2019-03-24T18:00:52.193Z,17.87
2019-03-24T18:03:18.481Z,21.27
2019-03-24T18:05:51.874Z,24.95
2019-03-24T18:08:15.664Z,22.48
2019-03-24T18:10:41.923Z,18.45
2019-03-24T18:13:08.228Z,20.80
2019-03-24T18:15:34.413Z,18.62
2019-03-24T18:18:00.705Z,20.00
2019-03-24T18:20:28.923Z,22.05
2019-03-24T18:22:55.074Z,23.77
2019-03-24T18:25:27.294Z,25.40
2019-03-24T18:27:49.517Z,27.07
2019-03-24T18:30:16.085Z,22.02
2019-03-24T18:32:42.382Z,17.32
2019-03-24T18:35:08.922Z,15.40
2019-03-24T18:37:35.118Z,16.45
2019-03-24T18:40:01.427Z,17.15
2019-03-24T18:42:28.840Z,16.62
2019-03-24T18:44:55.230Z,17.50
2019-03-24T18:47:21.490Z,17.23
2019-03-24T18:49:47.795Z,20.05
2019-03-24T18:52:22.328Z,22.48
2019-03-24T18:54:43.290Z,18.00
2019-03-24T18:57:10.717Z,19.45
2019-03-24T18:59:37.075Z,19.37
2019-03-24T19:02:03.304Z,16.77
2019-03-24T19:04:29.551Z,16.77
2019-03-24T19:06:55.797Z,15.95
2019-03-24T19:09:21.985Z,35.15
2019-03-24T19:11:48.119Z,38.70
2019-03-24T19:14:14.355Z,31.73
2019-03-24T19:16:40.394Z,25.45
2019-03-24T19:19:06.776Z,22.90
2019-03-24T19:21:33.155Z,20.95
2019-03-24T19:23:59.530Z,17.15
2019-03-24T19:28:54.213Z,21.65
2019-03-24T19:31:20.499Z,16.00
2019-03-24T19:33:46.825Z,16.25
2019-03-24T19:36:13.129Z,16.20
2019-03-24T19:38:40.386Z,16.20
2019-03-24T19:41:06.653Z,16.40
2019-03-24T19:43:32.966Z,20.27
2019-03-24T19:45:59.408Z,17.30
2019-03-24T19:48:25.782Z,17.65
2019-03-24T19:50:52.091Z,17.37
2019-03-24T19:53:18.373Z,38.85
2019-03-24T19:55:44.618Z,25.57
2019-03-24T19:58:10.893Z,20.52
2019-03-24T20:00:38.879Z,18.95
2019-03-24T20:03:05.243Z,13.78
2019-03-24T20:05:31.425Z,14.33
2019-03-24T20:07:57.681Z,13.50
2019-03-24T20:10:23.980Z,14.43
2019-03-24T20:12:50.140Z,16.23
2019-03-24T20:15:16.451Z,14.25
2019-03-24T20:17:42.735Z,18.87
2019-03-24T20:20:09.185Z,17.45
2019-03-24T20:22:35.472Z,15.88
2019-03-24T20:25:01.770Z,13.93
2019-03-24T20:27:28.075Z,13.50
2019-03-24T20:29:54.346Z,13.48
2019-03-24T20:32:20.634Z,15.55
2019-03-24T20:34:46.873Z,13.15
2019-03-24T20:37:13.141Z,12.35
2019-03-24T20:39:39.327Z,12.33
2019-03-24T20:42:05.618Z,15.65
2019-03-24T20:44:31.873Z,23.35
2019-03-24T20:46:58.045Z,18.77
2019-03-24T20:49:24.336Z,20.45
2019-03-24T20:51:50.574Z,18.23
2019-03-24T20:54:16.863Z,14.05
2019-03-24T20:56:43.123Z,14.83
2019-03-24T20:59:09.447Z,14.93
2019-03-24T21:01:35.730Z,12.47
2019-03-24T21:04:01.972Z,11.03
2019-03-24T21:06:28.331Z,12.65
2019-03-24T21:08:54.604Z,12.65
2019-03-24T21:11:20.843Z,12.75
2019-03-24T21:13:47.220Z,13.50
2019-03-24T21:16:13.433Z,15.93
2019-03-24T21:18:39.682Z,14.18
2019-03-24T21:21:06.012Z,17.42
2019-03-24T21:23:32.260Z,21.05
2019-03-24T21:25:58.498Z,18.87
2019-03-24T21:28:24.756Z,21.70
2019-03-24T21:30:50.991Z,24.55
2019-03-24T21:33:17.253Z,22.40
2019-03-24T21:35:43.507Z,22.37
2019-03-24T21:38:09.753Z,20.80
2019-03-24T21:40:37.871Z,12.20
2019-03-24T21:43:06.488Z,13.62
2019-03-24T21:45:34.692Z,16.27
2019-03-24T21:48:00.899Z,16.67
2019-03-24T21:50:27.158Z,19.67
2019-03-24T21:52:53.283Z,19.40
2019-03-24T21:55:19.556Z,16.35
2019-03-24T21:57:56.920Z,15.72
2019-03-24T22:00:17.580Z,14.43
2019-03-24T22:02:43.708Z,11.70
2019-03-24T22:05:09.859Z,13.18
2019-03-24T22:07:36.114Z,13.70
2019-03-24T22:10:04.248Z,14.70
2019-03-24T22:12:33.277Z,12.58
2019-03-24T22:14:59.459Z,12.60
2019-03-24T22:17:25.718Z,13.43
2019-03-24T22:19:51.912Z,12.40
2019-03-24T22:22:20.828Z,12.50
2019-03-24T22:24:47.083Z,12.30
2019-03-24T22:27:13.359Z,13.62
2019-03-24T22:29:41.879Z,15.18
2019-03-24T22:32:08.039Z,14.83
2019-03-24T22:34:34.325Z,12.33
2019-03-24T22:37:00.371Z,13.58
2019-03-24T22:39:26.642Z,17.05
2019-03-24T22:41:52.803Z,19.40
2019-03-24T22:44:19.334Z,21.62
2019-03-24T22:46:45.486Z,19.62
2019-03-24T22:49:13.604Z,20.02
2019-03-24T22:51:39.837Z,16.25
2019-03-24T22:54:05.984Z,14.43
2019-03-24T22:56:32.106Z,20.68
2019-03-24T22:58:58.334Z,23.45
2019-03-24T23:01:24.598Z,24.92
2019-03-24T23:03:50.904Z,19.00
2019-03-24T23:06:17.151Z,19.15
2019-03-24T23:08:43.387Z,18.23
2019-03-24T23:11:09.517Z,21.20
2019-03-24T23:13:35.759Z,25.40
2019-03-24T23:16:01.932Z,28.60
2019-03-24T23:18:28.063Z,23.12
2019-03-24T23:20:54.362Z,19.62
2019-03-24T23:23:20.468Z,19.80
2019-03-24T23:25:46.740Z,18.98
2019-03-24T23:28:12.989Z,16.02
2019-03-24T23:30:39.251Z,18.10
2019-03-24T23:33:05.379Z,18.92
2019-03-24T23:35:31.600Z,19.30
2019-03-24T23:37:57.825Z,18.37
2019-03-24T23:40:24.460Z,19.00
2019-03-24T23:42:52.504Z,19.10
2019-03-24T23:45:19.462Z,19.98
2019-03-24T23:47:45.734Z,19.05
2019-03-24T23:50:12.077Z,17.48
2019-03-24T23:52:38.320Z,18.57
2019-03-24T23:55:04.790Z,19.25
2019-03-24T23:57:32.819Z,19.52
2019-03-24T23:59:58.966Z,20.30
